Time,TemperatureF,DewpointF,PressureIn,WindDirection,WindDirectionDegrees,WindSpeedMPH,WindSpeedGustMPH,Humidity,HourlyPrecipIn,Conditions,Clouds,dailyrainin,SoftwareType,DateUTC
2013-10-08 00:02:00,52.7,44.6,29.80,ESE,112,0.0,-999.0,74,-99.99,,,0.00,Acu-Link.com,2013-10-08 05:02:00,
2013-10-08 00:19:00,52.5,44.5,29.80,ESE,112,1.1,-999.0,74,-99.99,,,0.00,Acu-Link.com,2013-10-08 05:19:00,
2013-10-08 00:34:00,52.2,44.5,29.79,ESE,112,0.0,-999.0,75,-99.99,,,0.00,Acu-Link.com,2013-10-08 05:34:00,
2013-10-08 00:49:00,51.8,44.5,29.80,ESE,112,0.0,-999.0,76,-99.99,,,0.00,Acu-Link.com,2013-10-08 05:49:00,
2013-10-08 01:04:00,51.6,44.3,29.79,ESE,112,1.1,-999.0,76,-99.99,,,0.00,Acu-Link.com,2013-10-08 06:04:00,
2013-10-08 01:19:00,51.4,44.1,29.78,SE,135,0.0,-999.0,76,-99.99,,,0.00,Acu-Link.com,2013-10-08 06:19:00,
2013-10-08 01:34:00,51.4,44.1,29.79,ESE,112,0.0,-999.0,76,-99.99,,,0.00,Acu-Link.com,2013-10-08 06:34:00,
2013-10-08 01:51:00,51.3,44.0,29.78,ESE,112,0.0,-999.0,76,-99.99,,,0.00,Acu-Link.com,2013-10-08 06:51:00,
2013-10-08 02:06:00,51.3,44.0,29.77,SE,135,1.1,-999.0,76,-99.99,,,0.00,Acu-Link.com,2013-10-08 07:06:00,
2013-10-08 02:21:00,51.1,43.8,29.77,ESE,112,1.1,-999.0,76,-99.99,,,0.00,Acu-Link.com,2013-10-08 07:21:00,
2013-10-08 02:37:00,51.1,43.5,29.77,SSE,157,1.1,-999.0,75,-99.99,,,0.00,Acu-Link.com,2013-10-08 07:37:00,
2013-10-08 02:52:00,51.3,43.6,29.77,South,180,1.1,-999.0,75,-99.99,,,0.00,Acu-Link.com,2013-10-08 07:52:00,
2013-10-08 03:07:00,51.1,43.5,29.76,SSE,157,0.0,-999.0,75,-99.99,,,0.00,Acu-Link.com,2013-10-08 08:07:00,
2013-10-08 03:22:00,51.1,43.5,29.77,ESE,112,1.1,-999.0,75,-99.99,,,0.00,Acu-Link.com,2013-10-08 08:22:00,
2013-10-08 03:37:00,51.1,43.5,29.77,SSE,157,1.1,-999.0,75,-99.99,,,0.00,Acu-Link.com,2013-10-08 08:37:00,
2013-10-08 03:53:00,51.1,43.1,29.77,ESE,112,1.1,-999.0,74,-99.99,,,0.00,Acu-Link.com,2013-10-08 08:53:00,
2013-10-08 04:08:00,51.3,43.3,29.76,SSE,157,1.1,-999.0,74,-99.99,,,0.00,Acu-Link.com,2013-10-08 09:08:00,
2013-10-08 04:23:00,51.3,43.3,29.75,ESE,112,1.1,-999.0,74,-99.99,,,0.00,Acu-Link.com,2013-10-08 09:23:00,
2013-10-08 04:38:00,51.3,42.9,29.75,South,180,1.1,-999.0,73,-99.99,,,0.00,Acu-Link.com,2013-10-08 09:38:00,
2013-10-08 04:53:00,50.0,41.7,29.74,SE,135,1.1,-999.0,73,-99.99,,,0.00,Acu-Link.com,2013-10-08 09:53:00,
2013-10-08 05:09:00,49.6,41.7,29.74,SE,135,1.7,-999.0,74,-99.99,,,0.00,Acu-Link.com,2013-10-08 10:09:00,
2013-10-08 05:24:00,49.5,41.9,29.74,ESE,112,0.0,-999.0,75,-99.99,,,0.00,Acu-Link.com,2013-10-08 10:24:00,
2013-10-08 05:39:00,49.1,41.5,29.75,SE,135,1.1,-999.0,75,-99.99,,,0.00,Acu-Link.com,2013-10-08 10:39:00,
2013-10-08 05:55:00,48.7,41.5,29.74,ESE,112,1.7,-999.0,76,-99.99,,,0.00,Acu-Link.com,2013-10-08 10:55:00,
2013-10-08 06:10:00,48.7,41.5,29.75,SE,135,1.7,-999.0,76,-99.99,,,0.00,Acu-Link.com,2013-10-08 11:10:00,
2013-10-08 06:25:00,48.4,41.2,29.74,East,90,1.1,-999.0,76,-99.99,,,0.00,Acu-Link.com,2013-10-08 11:25:00,
2013-10-08 06:41:00,48.2,41.3,29.74,ESE,112,1.1,-999.0,77,-99.99,,,0.00,Acu-Link.com,2013-10-08 11:41:00,
2013-10-08 06:56:00,48.4,41.5,29.74,East,90,1.7,-999.0,77,-99.99,,,0.00,Acu-Link.com,2013-10-08 11:56:00,
2013-10-08 07:11:00,48.6,41.7,29.74,ESE,112,1.1,-999.0,77,-99.99,,,0.00,Acu-Link.com,2013-10-08 12:11:00,
2013-10-08 07:27:00,48.9,41.7,29.74,ESE,112,0.0,-999.0,76,-99.99,,,0.00,Acu-Link.com,2013-10-08 12:27:00,
2013-10-08 07:42:00,49.1,41.9,29.74,SE,135,0.0,-999.0,76,-99.99,,,0.00,Acu-Link.com,2013-10-08 12:42:00,
2013-10-08 07:57:00,50.0,42.4,29.74,SSE,157,2.2,-999.0,75,-99.99,,,0.00,Acu-Link.com,2013-10-08 12:57:00,
2013-10-08 08:12:00,52.5,43.4,29.74,SSE,157,2.2,-999.0,71,-99.99,,,0.00,Acu-Link.com,2013-10-08 13:12:00,
2013-10-08 08:28:00,54.9,43.8,29.74,ESE,112,3.2,-999.0,66,-99.99,,,0.00,Acu-Link.com,2013-10-08 13:28:00,
2013-10-08 08:43:00,55.8,43.8,29.73,South,180,2.7,-999.0,64,-99.99,,,0.00,Acu-Link.com,2013-10-08 13:43:00,
2013-10-08 08:58:00,57.7,43.9,29.73,SSE,157,4.2,-999.0,60,-99.99,,,0.00,Acu-Link.com,2013-10-08 13:58:00,
2013-10-08 09:14:00,59.4,44.2,29.73,South,180,11.9,-999.0,57,-99.99,,,0.00,Acu-Link.com,2013-10-08 14:14:00,
2013-10-08 09:29:00,59.2,43.5,29.73,SSE,157,9.9,-999.0,56,-99.99,,,0.00,Acu-Link.com,2013-10-08 14:29:00,
2013-10-08 09:44:00,59.4,43.7,29.73,SSE,157,3.7,-999.0,56,-99.99,,,0.00,Acu-Link.com,2013-10-08 14:44:00,
2013-10-08 09:59:00,60.8,44.0,29.72,SSE,157,11.9,-999.0,54,-99.99,,,0.00,Acu-Link.com,2013-10-08 14:59:00,
2013-10-08 10:14:00,61.3,43.5,29.72,SSW,202,8.9,-999.0,52,-99.99,,,0.00,Acu-Link.com,2013-10-08 15:14:00,
2013-10-08 10:29:00,63.0,44.1,29.72,SW,225,11.4,-999.0,50,-99.99,,,0.00,Acu-Link.com,2013-10-08 15:29:00,
2013-10-08 10:44:00,65.7,44.3,29.71,SSE,157,5.3,-999.0,46,-99.99,,,0.00,Acu-Link.com,2013-10-08 15:44:00,
2013-10-08 10:59:00,66.7,44.1,29.71,ESE,112,9.9,-999.0,44,-99.99,,,0.00,Acu-Link.com,2013-10-08 15:59:00,
2013-10-08 11:14:00,68.4,44.4,29.70,SSW,202,11.9,-999.0,42,-99.99,,,0.00,Acu-Link.com,2013-10-08 16:14:00,
2013-10-08 11:30:00,70.2,44.7,29.70,SSE,157,1.7,-999.0,40,-99.99,,,0.00,Acu-Link.com,2013-10-08 16:30:00,
2013-10-08 11:45:00,69.8,43.7,29.69,SSW,202,8.9,-999.0,39,-99.99,,,0.00,Acu-Link.com,2013-10-08 16:45:00,
2013-10-08 12:00:00,70.7,44.5,29.70,SSW,202,6.3,-999.0,39,-99.99,,,0.00,Acu-Link.com,2013-10-08 17:00:00,
2013-10-08 12:15:00,71.4,44.5,29.69,South,180,17.1,-999.0,38,-99.99,,,0.00,Acu-Link.com,2013-10-08 17:15:00,
2013-10-08 12:31:00,71.6,44.6,29.68,SSE,157,15.0,-999.0,38,-99.99,,,0.01,Acu-Link.com,2013-10-08 17:31:00,
2013-10-08 12:46:00,72.1,45.1,29.68,South,180,3.2,-999.0,38,-99.99,,,0.01,Acu-Link.com,2013-10-08 17:46:00,
2013-10-08 13:01:00,72.1,45.1,29.68,South,180,11.9,-999.0,38,-99.99,,,0.01,Acu-Link.com,2013-10-08 18:01:00,
2013-10-08 13:16:00,74.1,46.2,29.67,SSW,202,10.4,-999.0,37,-99.99,,,0.01,Acu-Link.com,2013-10-08 18:16:00,
2013-10-08 13:31:00,74.1,46.2,29.65,SSW,202,14.0,-999.0,37,-99.99,,,0.01,Acu-Link.com,2013-10-08 18:31:00,
2013-10-08 13:46:00,75.4,45.8,29.65,SSE,157,11.9,-999.0,35,-99.99,,,0.01,Acu-Link.com,2013-10-08 18:46:00,
2013-10-08 14:01:00,76.5,45.2,29.65,SSE,157,2.7,-999.0,33,-99.99,,,0.01,Acu-Link.com,2013-10-08 19:01:00,
2013-10-08 14:16:00,75.6,45.2,29.65,SSE,157,15.5,-999.0,34,-99.99,,,0.01,Acu-Link.com,2013-10-08 19:16:00,
2013-10-08 14:31:00,76.3,45.9,29.64,SSE,157,14.5,-999.0,34,-99.99,,,0.01,Acu-Link.com,2013-10-08 19:31:00,
2013-10-08 14:46:00,76.3,45.1,29.65,WSW,247,10.9,-999.0,33,-99.99,,,0.01,Acu-Link.com,2013-10-08 19:46:00,
2013-10-08 15:01:00,76.1,44.1,29.64,South,180,9.4,-999.0,32,-99.99,,,0.01,Acu-Link.com,2013-10-08 20:01:00,
2013-10-08 15:16:00,75.9,43.9,29.64,SSW,202,13.5,-999.0,32,-99.99,,,0.01,Acu-Link.com,2013-10-08 20:16:00,
2013-10-08 15:31:00,76.8,43.9,29.64,SSW,202,12.5,-999.0,31,-99.99,,,0.01,Acu-Link.com,2013-10-08 20:31:00,
2013-10-08 15:46:00,77.0,44.0,29.64,South,180,11.9,-999.0,31,-99.99,,,0.01,Acu-Link.com,2013-10-08 20:46:00,
2013-10-08 16:01:00,77.4,44.4,29.64,SSE,157,18.1,-999.0,31,-99.99,,,0.01,Acu-Link.com,2013-10-08 21:01:00,
2013-10-08 16:16:00,77.9,45.6,29.64,South,180,9.9,-999.0,32,-99.99,,,0.01,Acu-Link.com,2013-10-08 21:16:00,
2013-10-08 16:31:00,76.8,43.9,29.63,South,180,17.6,-999.0,31,-99.99,,,0.01,Acu-Link.com,2013-10-08 21:31:00,
2013-10-08 16:46:00,77.0,44.0,29.63,South,180,11.9,-999.0,31,-99.99,,,0.01,Acu-Link.com,2013-10-08 21:46:00,
2013-10-08 17:01:00,76.5,45.2,29.64,SSW,202,7.3,-999.0,33,-99.99,,,0.01,Acu-Link.com,2013-10-08 22:01:00,
2013-10-08 17:16:00,75.7,45.3,29.64,SSE,157,10.4,-999.0,34,-99.99,,,0.01,Acu-Link.com,2013-10-08 22:16:00,
2013-10-08 17:32:00,76.1,46.4,29.64,South,180,11.4,-999.0,35,-99.99,,,0.01,Acu-Link.com,2013-10-08 22:32:00,
2013-10-08 17:47:00,75.6,46.7,29.65,South,180,3.7,-999.0,36,-99.99,,,0.01,Acu-Link.com,2013-10-08 22:47:00,
2013-10-08 18:02:00,75.0,46.2,29.65,SE,135,5.3,-999.0,36,-99.99,,,0.01,Acu-Link.com,2013-10-08 23:02:00,
2013-10-08 18:17:00,73.9,46.0,29.66,SSE,157,5.8,-999.0,37,-99.99,,,0.01,Acu-Link.com,2013-10-08 23:17:00,
2013-10-08 18:32:00,73.0,46.6,29.66,South,180,4.2,-999.0,39,-99.99,,,0.01,Acu-Link.com,2013-10-08 23:32:00,
2013-10-08 18:47:00,72.1,46.4,29.67,South,180,2.2,-999.0,40,-99.99,,,0.01,Acu-Link.com,2013-10-08 23:47:00,
2013-10-08 19:03:00,70.9,46.7,29.67,SSW,202,2.2,-999.0,42,-99.99,,,0.01,Acu-Link.com,2013-10-09 00:03:00,
2013-10-08 19:18:00,69.6,46.7,29.68,SSE,157,1.7,-999.0,44,-99.99,,,0.01,Acu-Link.com,2013-10-09 00:18:00,
2013-10-08 19:33:00,68.7,47.1,29.68,SSE,157,2.2,-999.0,46,-99.99,,,0.01,Acu-Link.com,2013-10-09 00:33:00,
2013-10-08 19:48:00,68.0,47.0,29.69,South,180,3.2,-999.0,47,-99.99,,,0.01,Acu-Link.com,2013-10-09 00:48:00,
2013-10-08 20:03:00,66.7,47.5,29.70,SE,135,1.7,-999.0,50,-99.99,,,0.01,Acu-Link.com,2013-10-09 01:03:00,
2013-10-08 20:19:00,66.6,47.4,29.70,South,180,4.2,-999.0,50,-99.99,,,0.01,Acu-Link.com,2013-10-09 01:19:00,
2013-10-08 20:34:00,66.7,47.5,29.71,South,180,2.7,-999.0,50,-99.99,,,0.01,Acu-Link.com,2013-10-09 01:34:00,
2013-10-08 20:49:00,66.6,47.4,29.71,South,180,3.2,-999.0,50,-99.99,,,0.01,Acu-Link.com,2013-10-09 01:49:00,
2013-10-08 21:04:00,66.2,47.5,29.71,SSE,157,2.2,-999.0,51,-99.99,,,0.01,Acu-Link.com,2013-10-09 02:04:00,
2013-10-08 21:20:00,65.5,47.4,29.72,SSW,202,1.7,-999.0,52,-99.99,,,0.01,Acu-Link.com,2013-10-09 02:20:00,
2013-10-08 21:35:00,64.8,47.3,29.72,SSE,157,2.2,-999.0,53,-99.99,,,0.01,Acu-Link.com,2013-10-09 02:35:00,
2013-10-08 21:50:00,65.1,47.5,29.73,South,180,3.7,-999.0,53,-99.99,,,0.01,Acu-Link.com,2013-10-09 02:50:00,
2013-10-08 22:06:00,64.9,47.4,29.73,SSE,157,7.8,-999.0,53,-99.99,,,0.01,Acu-Link.com,2013-10-09 03:06:00,
2013-10-08 22:21:00,65.1,47.5,29.74,SSE,157,2.7,-999.0,53,-99.99,,,0.01,Acu-Link.com,2013-10-09 03:21:00,
2013-10-08 22:36:00,64.9,46.8,29.74,South,180,3.2,-999.0,52,-99.99,,,0.01,Acu-Link.com,2013-10-09 03:36:00,
2013-10-08 22:52:00,64.4,46.4,29.74,SSE,157,13.0,-999.0,52,-99.99,,,0.01,Acu-Link.com,2013-10-09 03:52:00,
2013-10-08 23:07:00,64.2,46.2,29.75,South,180,9.4,-999.0,52,-99.99,,,0.01,Acu-Link.com,2013-10-09 04:07:00,
2013-10-08 23:22:00,64.0,46.0,29.76,SSE,157,8.3,-999.0,52,-99.99,,,0.01,Acu-Link.com,2013-10-09 04:22:00,
2013-10-08 23:37:00,63.5,46.1,29.76,South,180,10.4,-999.0,53,-99.99,,,0.01,Acu-Link.com,2013-10-09 04:37:00,
2013-10-08 23:52:00,63.5,46.1,29.77,South,180,10.9,-999.0,53,-99.99,,,0.01,Acu-Link.com,2013-10-09 04:52:00,